sensor_id;sensor_type;location;lat;lon;timestamp;temperature;humidity
20700;DHT22;10511;51.232;9.420;2024-03-23T00:54:13;8.30;99.90
20700;DHT22;10511;51.232;9.420;2024-03-23T00:56:39;8.30;99.90
20700;DHT22;10511;51.232;9.420;2024-03-23T00:59:05;8.30;99.90
20700;DHT22;10511;51.232;9.420;2024-03-23T01:01:31;8.20;99.90
20700;DHT22;10511;51.232;9.420;2024-03-23T01:03:58;8.20;99.90
20700;DHT22;10511;51.232;9.420;2024-03-23T01:06:24;8.20;99.90
20700;DHT22;10511;51.232;9.420;2024-03-23T01:08:51;8.20;99.90
20700;DHT22;10511;51.232;9.420;2024-03-23T01:11:19;8.10;99.90
20700;DHT22;10511;51.232;9.420;2024-03-23T01:13:46;8.00;99.90
20700;DHT22;10511;51.232;9.420;2024-03-23T01:16:12;8.00;99.90
20700;DHT22;10511;51.232;9.420;2024-03-23T01:18:38;8.00;99.90
20700;DHT22;10511;51.232;9.420;2024-03-23T01:21:04;8.00;99.90
20700;DHT22;10511;51.232;9.420;2024-03-23T01:23:31;8.00;99.90
20700;DHT22;10511;51.232;9.420;2024-03-23T01:25:57;8.00;99.90
20700;DHT22;10511;51.232;9.420;2024-03-23T01:28:25;8.00;99.90
20700;DHT22;10511;51.232;9.420;2024-03-23T01:30:51;7.90;99.90
20700;DHT22;10511;51.232;9.420;2024-03-23T01:33:17;7.90;99.90
20700;DHT22;10511;51.232;9.420;2024-03-23T01:35:43;7.90;99.90
20700;DHT22;10511;51.232;9.420;2024-03-23T01:38:10;7.90;99.90
20700;DHT22;10511;51.232;9.420;2024-03-23T01:40:36;7.80;99.90
20700;DHT22;10511;51.232;9.420;2024-03-23T01:43:04;7.80;99.90
20700;DHT22;10511;51.232;9.420;2024-03-23T01:45:32;7.80;99.90
20700;DHT22;10511;51.232;9.420;2024-03-23T01:47:59;7.70;99.90
20700;DHT22;10511;51.232;9.420;2024-03-23T01:50:26;7.70;99.90
20700;DHT22;10511;51.232;9.420;2024-03-23T01:52:53;7.70;99.90
20700;DHT22;10511;51.232;9.420;2024-03-23T01:55:19;7.60;99.90
20700;DHT22;10511;51.232;9.420;2024-03-23T01:57:46;7.70;99.90
20700;DHT22;10511;51.232;9.420;2024-03-23T02:00:13;7.80;99.90
20700;DHT22;10511;51.232;9.420;2024-03-23T02:02:45;7.80;99.90
20700;DHT22;10511;51.232;9.420;2024-03-23T02:05:11;7.70;99.90
20700;DHT22;10511;51.232;9.420;2024-03-23T02:07:39;7.70;99.90
20700;DHT22;10511;51.232;9.420;2024-03-23T02:10:06;7.60;99.90
20700;DHT22;10511;51.232;9.420;2024-03-23T02:12:33;7.50;99.90
20700;DHT22;10511;51.232;9.420;2024-03-23T02:14:59;7.50;99.90
20700;DHT22;10511;51.232;9.420;2024-03-23T02:17:26;7.50;99.90
20700;DHT22;10511;51.232;9.420;2024-03-23T02:19:53;7.50;99.90
20700;DHT22;10511;51.232;9.420;2024-03-23T02:22:20;7.50;99.90
20700;DHT22;10511;51.232;9.420;2024-03-23T02:24:47;7.50;99.90
20700;DHT22;10511;51.232;9.420;2024-03-23T02:27:14;7.60;99.90
20700;DHT22;10511;51.232;9.420;2024-03-23T02:29:40;7.60;99.90
20700;DHT22;10511;51.232;9.420;2024-03-23T02:32:07;7.50;99.90
20700;DHT22;10511;51.232;9.420;2024-03-23T02:34:34;7.50;99.90
20700;DHT22;10511;51.232;9.420;2024-03-23T02:37:01;7.40;99.90
20700;DHT22;10511;51.232;9.420;2024-03-23T02:39:27;7.50;99.90
20700;DHT22;10511;51.232;9.420;2024-03-23T02:41:56;7.60;99.90
20700;DHT22;10511;51.232;9.420;2024-03-23T02:44:22;7.50;99.90
20700;DHT22;10511;51.232;9.420;2024-03-23T02:46:48;7.40;99.90
20700;DHT22;10511;51.232;9.420;2024-03-23T02:49:14;7.30;99.90
20700;DHT22;10511;51.232;9.420;2024-03-23T02:51:41;7.30;99.90
20700;DHT22;10511;51.232;9.420;2024-03-23T02:54:07;7.40;99.90
20700;DHT22;10511;51.232;9.420;2024-03-23T02:56:34;7.30;99.90
20700;DHT22;10511;51.232;9.420;2024-03-23T02:59:01;7.20;99.90
20700;DHT22;10511;51.232;9.420;2024-03-23T03:01:28;7.20;99.90
20700;DHT22;10511;51.232;9.420;2024-03-23T03:03:53;7.10;99.90
20700;DHT22;10511;51.232;9.420;2024-03-23T03:06:23;7.00;99.90
20700;DHT22;10511;51.232;9.420;2024-03-23T03:08:49;7.00;99.90
20700;DHT22;10511;51.232;9.420;2024-03-23T03:11:16;7.00;99.90
20700;DHT22;10511;51.232;9.420;2024-03-23T03:13:42;7.10;99.90
20700;DHT22;10511;51.232;9.420;2024-03-23T03:16:10;7.30;99.90
20700;DHT22;10511;51.232;9.420;2024-03-23T03:18:36;7.30;99.90
20700;DHT22;10511;51.232;9.420;2024-03-23T03:21:03;7.10;99.90
20700;DHT22;10511;51.232;9.420;2024-03-23T03:23:31;6.80;99.90
20700;DHT22;10511;51.232;9.420;2024-03-23T03:25:58;6.60;99.90
20700;DHT22;10511;51.232;9.420;2024-03-23T03:28:24;6.50;99.90
20700;DHT22;10511;51.232;9.420;2024-03-23T03:30:51;6.40;99.90
20700;DHT22;10511;51.232;9.420;2024-03-23T03:33:18;6.40;99.90
20700;DHT22;10511;51.232;9.420;2024-03-23T03:35:45;6.40;99.90
20700;DHT22;10511;51.232;9.420;2024-03-23T03:38:11;6.40;99.90
20700;DHT22;10511;51.232;9.420;2024-03-23T03:40:38;6.40;99.90
20700;DHT22;10511;51.232;9.420;2024-03-23T03:43:04;6.30;99.90
20700;DHT22;10511;51.232;9.420;2024-03-23T03:45:31;6.30;99.90
20700;DHT22;10511;51.232;9.420;2024-03-23T03:47:56;6.20;99.90
20700;DHT22;10511;51.232;9.420;2024-03-23T03:50:26;6.00;99.90
20700;DHT22;10511;51.232;9.420;2024-03-23T03:52:52;5.90;99.90
20700;DHT22;10511;51.232;9.420;2024-03-23T03:55:18;5.90;99.90
20700;DHT22;10511;51.232;9.420;2024-03-23T03:57:44;5.90;99.90
20700;DHT22;10511;51.232;9.420;2024-03-23T04:00:12;5.90;99.90
20700;DHT22;10511;51.232;9.420;2024-03-23T04:02:38;5.90;99.90
20700;DHT22;10511;51.232;9.420;2024-03-23T04:05:05;5.80;99.90
20700;DHT22;10511;51.232;9.420;2024-03-23T04:07:33;5.80;99.90
20700;DHT22;10511;51.232;9.420;2024-03-23T04:09:59;5.90;99.90
20700;DHT22;10511;51.232;9.420;2024-03-23T04:12:25;6.00;99.90
20700;DHT22;10511;51.232;9.420;2024-03-23T04:14:52;6.00;99.90
20700;DHT22;10511;51.232;9.420;2024-03-23T04:17:18;6.00;99.90
20700;DHT22;10511;51.232;9.420;2024-03-23T04:19:45;5.80;99.90
20700;DHT22;10511;51.232;9.420;2024-03-23T04:22:11;5.80;99.90
20700;DHT22;10511;51.232;9.420;2024-03-23T04:24:39;5.80;99.90
20700;DHT22;10511;51.232;9.420;2024-03-23T04:27:05;5.80;99.90
20700;DHT22;10511;51.232;9.420;2024-03-23T04:29:32;5.90;99.90
20700;DHT22;10511;51.232;9.420;2024-03-23T04:31:58;5.90;99.90
20700;DHT22;10511;51.232;9.420;2024-03-23T04:34:25;5.90;99.90
20700;DHT22;10511;51.232;9.420;2024-03-23T04:36:50;5.90;99.90
20700;DHT22;10511;51.232;9.420;2024-03-23T04:39:18;5.90;99.90
20700;DHT22;10511;51.232;9.420;2024-03-23T04:41:46;5.80;99.90
20700;DHT22;10511;51.232;9.420;2024-03-23T04:44:13;5.80;99.90
20700;DHT22;10511;51.232;9.420;2024-03-23T04:46:40;5.80;99.90
20700;DHT22;10511;51.232;9.420;2024-03-23T04:49:05;5.70;99.90
20700;DHT22;10511;51.232;9.420;2024-03-23T04:51:36;5.60;99.90
20700;DHT22;10511;51.232;9.420;2024-03-23T04:54:04;5.60;99.90
20700;DHT22;10511;51.232;9.420;2024-03-23T04:56:31;5.50;99.90
20700;DHT22;10511;51.232;9.420;2024-03-23T04:59:00;5.60;99.90
20700;DHT22;10511;51.232;9.420;2024-03-23T05:01:27;5.60;99.90
20700;DHT22;10511;51.232;9.420;2024-03-23T05:03:54;5.60;99.90
20700;DHT22;10511;51.232;9.420;2024-03-23T05:06:20;5.60;99.90
20700;DHT22;10511;51.232;9.420;2024-03-23T05:08:46;5.70;99.90
20700;DHT22;10511;51.232;9.420;2024-03-23T05:11:12;5.70;99.90
20700;DHT22;10511;51.232;9.420;2024-03-23T05:13:39;5.70;99.90
20700;DHT22;10511;51.232;9.420;2024-03-23T05:16:08;5.60;99.90
20700;DHT22;10511;51.232;9.420;2024-03-23T05:18:34;5.60;99.90
20700;DHT22;10511;51.232;9.420;2024-03-23T05:21:01;5.50;99.90
20700;DHT22;10511;51.232;9.420;2024-03-23T05:23:28;5.50;99.90
20700;DHT22;10511;51.232;9.420;2024-03-23T05:25:56;5.40;99.90
20700;DHT22;10511;51.232;9.420;2024-03-23T05:28:22;5.40;99.90
20700;DHT22;10511;51.232;9.420;2024-03-23T05:30:52;5.30;99.90
20700;DHT22;10511;51.232;9.420;2024-03-23T05:33:20;5.00;99.90
20700;DHT22;10511;51.232;9.420;2024-03-23T05:35:55;4.90;99.90
20700;DHT22;10511;51.232;9.420;2024-03-23T05:38:21;4.80;99.90
20700;DHT22;10511;51.232;9.420;2024-03-23T05:40:53;4.70;99.90
20700;DHT22;10511;51.232;9.420;2024-03-23T05:43:19;4.60;99.90
20700;DHT22;10511;51.232;9.420;2024-03-23T05:45:46;4.60;99.90
20700;DHT22;10511;51.232;9.420;2024-03-23T05:48:12;4.70;99.90
20700;DHT22;10511;51.232;9.420;2024-03-23T05:50:40;4.70;99.90
20700;DHT22;10511;51.232;9.420;2024-03-23T05:53:06;4.80;99.90
20700;DHT22;10511;51.232;9.420;2024-03-23T05:55:33;4.90;99.90
20700;DHT22;10511;51.232;9.420;2024-03-23T05:57:59;5.00;99.90
20700;DHT22;10511;51.232;9.420;2024-03-23T06:00:26;5.10;99.90
20700;DHT22;10511;51.232;9.420;2024-03-23T06:02:52;5.00;99.90
20700;DHT22;10511;51.232;9.420;2024-03-23T06:05:18;5.10;99.90
20700;DHT22;10511;51.232;9.420;2024-03-23T06:07:46;5.00;99.90
20700;DHT22;10511;51.232;9.420;2024-03-23T06:10:12;5.00;99.90
20700;DHT22;10511;51.232;9.420;2024-03-23T06:12:38;5.00;99.90
20700;DHT22;10511;51.232;9.420;2024-03-23T06:15:06;5.00;99.90
20700;DHT22;10511;51.232;9.420;2024-03-23T06:17:35;4.90;99.90
20700;DHT22;10511;51.232;9.420;2024-03-23T06:20:03;4.90;99.90
20700;DHT22;10511;51.232;9.420;2024-03-23T06:22:29;4.90;99.90
20700;DHT22;10511;51.232;9.420;2024-03-23T06:24:58;4.90;99.90
20700;DHT22;10511;51.232;9.420;2024-03-23T06:27:24;4.90;99.90
20700;DHT22;10511;51.232;9.420;2024-03-23T06:29:50;4.90;99.90
20700;DHT22;10511;51.232;9.420;2024-03-23T06:32:17;5.00;99.90
20700;DHT22;10511;51.232;9.420;2024-03-23T06:34:44;4.90;99.90
20700;DHT22;10511;51.232;9.420;2024-03-23T06:37:10;4.90;99.90
20700;DHT22;10511;51.232;9.420;2024-03-23T06:39:37;4.80;99.90
20700;DHT22;10511;51.232;9.420;2024-03-23T06:42:04;4.70;99.90
20700;DHT22;10511;51.232;9.420;2024-03-23T06:44:31;4.70;99.90
20700;DHT22;10511;51.232;9.420;2024-03-23T06:46:57;4.60;99.90
20700;DHT22;10511;51.232;9.420;2024-03-23T06:49:24;4.70;99.90
20700;DHT22;10511;51.232;9.420;2024-03-23T06:51:50;4.80;99.90
20700;DHT22;10511;51.232;9.420;2024-03-23T06:54:17;4.80;99.90
20700;DHT22;10511;51.232;9.420;2024-03-23T06:56:44;4.90;99.90
20700;DHT22;10511;51.232;9.420;2024-03-23T06:59:12;5.00;99.90
20700;DHT22;10511;51.232;9.420;2024-03-23T07:01:38;5.00;99.90
20700;DHT22;10511;51.232;9.420;2024-03-23T07:04:05;5.00;99.90
20700;DHT22;10511;51.232;9.420;2024-03-23T07:06:31;5.10;99.90
20700;DHT22;10511;51.232;9.420;2024-03-23T07:08:58;5.10;99.90
20700;DHT22;10511;51.232;9.420;2024-03-23T07:11:24;5.10;99.90
20700;DHT22;10511;51.232;9.420;2024-03-23T07:13:52;5.00;99.90
20700;DHT22;10511;51.232;9.420;2024-03-23T07:16:21;4.80;99.90
20700;DHT22;10511;51.232;9.420;2024-03-23T07:18:50;4.70;99.90
20700;DHT22;10511;51.232;9.420;2024-03-23T07:21:16;4.60;99.90
20700;DHT22;10511;51.232;9.420;2024-03-23T07:23:43;4.70;99.90
20700;DHT22;10511;51.232;9.420;2024-03-23T07:26:10;4.70;99.90
20700;DHT22;10511;51.232;9.420;2024-03-23T07:28:37;4.90;99.90
20700;DHT22;10511;51.232;9.420;2024-03-23T07:31:05;5.00;99.90
20700;DHT22;10511;51.232;9.420;2024-03-23T07:33:36;5.10;99.90
20700;DHT22;10511;51.232;9.420;2024-03-23T07:36:03;5.20;99.90
20700;DHT22;10511;51.232;9.420;2024-03-23T07:38:31;5.30;99.90
20700;DHT22;10511;51.232;9.420;2024-03-23T07:41:03;5.40;99.90
20700;DHT22;10511;51.232;9.420;2024-03-23T07:43:30;5.50;99.90
20700;DHT22;10511;51.232;9.420;2024-03-23T07:45:56;5.50;99.90
20700;DHT22;10511;51.232;9.420;2024-03-23T07:48:23;5.50;99.90
20700;DHT22;10511;51.232;9.420;2024-03-23T07:50:58;5.50;99.90
20700;DHT22;10511;51.232;9.420;2024-03-23T07:53:25;5.50;99.90
20700;DHT22;10511;51.232;9.420;2024-03-23T07:55:57;5.60;99.90
20700;DHT22;10511;51.232;9.420;2024-03-23T07:58:25;5.60;99.90
20700;DHT22;10511;51.232;9.420;2024-03-23T08:00:51;5.50;99.90
20700;DHT22;10511;51.232;9.420;2024-03-23T08:03:18;5.50;99.90
20700;DHT22;10511;51.232;9.420;2024-03-23T08:05:45;5.60;99.90
20700;DHT22;10511;51.232;9.420;2024-03-23T08:08:15;5.60;99.90
20700;DHT22;10511;51.232;9.420;2024-03-23T08:10:50;5.50;99.90
20700;DHT22;10511;51.232;9.420;2024-03-23T08:13:17;5.50;99.90
20700;DHT22;10511;51.232;9.420;2024-03-23T08:15:43;5.50;99.90
20700;DHT22;10511;51.232;9.420;2024-03-23T08:18:11;5.40;99.90
20700;DHT22;10511;51.232;9.420;2024-03-23T08:20:37;5.40;99.90
20700;DHT22;10511;51.232;9.420;2024-03-23T08:23:06;5.50;99.90
20700;DHT22;10511;51.232;9.420;2024-03-23T08:25:33;5.50;99.90
20700;DHT22;10511;51.232;9.420;2024-03-23T08:28:00;5.40;99.90
20700;DHT22;10511;51.232;9.420;2024-03-23T08:30:27;5.40;99.90
20700;DHT22;10511;51.232;9.420;2024-03-23T08:32:54;5.50;99.90
20700;DHT22;10511;51.232;9.420;2024-03-23T08:35:20;5.60;99.90
20700;DHT22;10511;51.232;9.420;2024-03-23T08:37:47;5.70;99.90
20700;DHT22;10511;51.232;9.420;2024-03-23T08:40:13;5.60;99.90
20700;DHT22;10511;51.232;9.420;2024-03-23T08:42:41;5.60;99.90
20700;DHT22;10511;51.232;9.420;2024-03-23T08:45:08;5.70;99.90
20700;DHT22;10511;51.232;9.420;2024-03-23T08:47:35;5.70;99.90
20700;DHT22;10511;51.232;9.420;2024-03-23T08:50:01;5.70;99.90
20700;DHT22;10511;51.232;9.420;2024-03-23T08:52:28;5.70;99.90
20700;DHT22;10511;51.232;9.420;2024-03-23T08:54:55;5.70;99.90
20700;DHT22;10511;51.232;9.420;2024-03-23T08:57:23;5.70;99.90
20700;DHT22;10511;51.232;9.420;2024-03-23T08:59:50;5.80;99.90
20700;DHT22;10511;51.232;9.420;2024-03-23T09:02:17;5.80;99.90
20700;DHT22;10511;51.232;9.420;2024-03-23T09:04:44;5.80;99.90
20700;DHT22;10511;51.232;9.420;2024-03-23T09:07:11;5.90;99.90
20700;DHT22;10511;51.232;9.420;2024-03-23T09:09:38;5.90;99.90
20700;DHT22;10511;51.232;9.420;2024-03-23T09:12:05;5.90;99.90
20700;DHT22;10511;51.232;9.420;2024-03-23T09:14:31;5.90;99.90
20700;DHT22;10511;51.232;9.420;2024-03-23T09:17:00;6.00;99.90
20700;DHT22;10511;51.232;9.420;2024-03-23T09:19:27;6.00;99.90
20700;DHT22;10511;51.232;9.420;2024-03-23T09:21:54;6.10;99.90
20700;DHT22;10511;51.232;9.420;2024-03-23T09:24:21;6.10;99.90
20700;DHT22;10511;51.232;9.420;2024-03-23T09:26:47;6.00;99.90
20700;DHT22;10511;51.232;9.420;2024-03-23T09:29:14;5.80;99.90
20700;DHT22;10511;51.232;9.420;2024-03-23T09:31:40;5.80;99.90
20700;DHT22;10511;51.232;9.420;2024-03-23T09:34:08;5.80;99.90
20700;DHT22;10511;51.232;9.420;2024-03-23T09:36:34;5.80;99.90
20700;DHT22;10511;51.232;9.420;2024-03-23T09:39:01;5.80;99.90
20700;DHT22;10511;51.232;9.420;2024-03-23T09:41:27;5.70;99.90
20700;DHT22;10511;51.232;9.420;2024-03-23T09:43:54;5.60;99.90
20700;DHT22;10511;51.232;9.420;2024-03-23T09:46:20;5.70;99.90
20700;DHT22;10511;51.232;9.420;2024-03-23T09:48:47;5.80;99.90
20700;DHT22;10511;51.232;9.420;2024-03-23T09:51:14;5.90;99.90
20700;DHT22;10511;51.232;9.420;2024-03-23T09:53:41;5.80;99.90
20700;DHT22;10511;51.232;9.420;2024-03-23T09:56:08;5.90;99.90
20700;DHT22;10511;51.232;9.420;2024-03-23T09:58:35;5.90;99.90
20700;DHT22;10511;51.232;9.420;2024-03-23T10:01:01;6.00;99.90
20700;DHT22;10511;51.232;9.420;2024-03-23T10:03:29;6.10;99.90
20700;DHT22;10511;51.232;9.420;2024-03-23T10:06:01;6.20;99.90
20700;DHT22;10511;51.232;9.420;2024-03-23T10:08:30;6.40;99.90
20700;DHT22;10511;51.232;9.420;2024-03-23T10:10:56;6.60;99.90
20700;DHT22;10511;51.232;9.420;2024-03-23T10:13:25;6.80;99.90
20700;DHT22;10511;51.232;9.420;2024-03-23T10:15:58;6.90;99.90
20700;DHT22;10511;51.232;9.420;2024-03-23T10:18:26;7.00;99.90
20700;DHT22;10511;51.232;9.420;2024-03-23T10:21:06;7.10;99.90
20700;DHT22;10511;51.232;9.420;2024-03-23T10:23:35;7.00;99.90
20700;DHT22;10511;51.232;9.420;2024-03-23T10:26:13;7.20;99.90
20700;DHT22;10511;51.232;9.420;2024-03-23T10:28:51;7.40;99.90
20700;DHT22;10511;51.232;9.420;2024-03-23T10:31:17;7.50;99.90
20700;DHT22;10511;51.232;9.420;2024-03-23T10:33:45;7.50;99.90
20700;DHT22;10511;51.232;9.420;2024-03-23T10:36:11;7.50;99.90
20700;DHT22;10511;51.232;9.420;2024-03-23T10:38:40;7.60;99.90
20700;DHT22;10511;51.232;9.420;2024-03-23T10:41:07;7.80;99.90
20700;DHT22;10511;51.232;9.420;2024-03-23T10:43:35;7.80;99.90
20700;DHT22;10511;51.232;9.420;2024-03-23T10:46:01;8.10;99.90
20700;DHT22;10511;51.232;9.420;2024-03-23T10:48:28;8.50;99.90
20700;DHT22;10511;51.232;9.420;2024-03-23T10:50:54;8.60;99.90
20700;DHT22;10511;51.232;9.420;2024-03-23T10:53:22;8.70;99.90
20700;DHT22;10511;51.232;9.420;2024-03-23T10:55:52;8.70;99.90
20700;DHT22;10511;51.232;9.420;2024-03-23T10:58:26;9.00;99.90
20700;DHT22;10511;51.232;9.420;2024-03-23T11:00:53;8.80;99.90
20700;DHT22;10511;51.232;9.420;2024-03-23T11:03:44;8.50;99.90
20700;DHT22;10511;51.232;9.420;2024-03-23T11:06:10;8.40;99.90
20700;DHT22;10511;51.232;9.420;2024-03-23T11:08:38;8.30;99.90
20700;DHT22;10511;51.232;9.420;2024-03-23T11:11:21;8.20;99.90
20700;DHT22;10511;51.232;9.420;2024-03-23T11:13:49;7.90;99.90
20700;DHT22;10511;51.232;9.420;2024-03-23T11:16:16;6.80;99.90
20700;DHT22;10511;51.232;9.420;2024-03-23T11:18:44;6.20;99.90
20700;DHT22;10511;51.232;9.420;2024-03-23T11:21:10;5.80;99.90
20700;DHT22;10511;51.232;9.420;2024-03-23T11:23:37;5.60;99.90
20700;DHT22;10511;51.232;9.420;2024-03-23T11:26:07;5.60;99.90
20700;DHT22;10511;51.232;9.420;2024-03-23T11:28:35;5.70;99.90
20700;DHT22;10511;51.232;9.420;2024-03-23T11:31:01;5.90;99.90
20700;DHT22;10511;51.232;9.420;2024-03-23T11:33:35;6.30;99.90
20700;DHT22;10511;51.232;9.420;2024-03-23T11:36:02;6.70;99.90
20700;DHT22;10511;51.232;9.420;2024-03-23T11:38:29;7.20;99.90
20700;DHT22;10511;51.232;9.420;2024-03-23T11:40:55;7.60;99.90
20700;DHT22;10511;51.232;9.420;2024-03-23T11:43:22;7.80;99.90
20700;DHT22;10511;51.232;9.420;2024-03-23T11:45:50;8.00;99.90
20700;DHT22;10511;51.232;9.420;2024-03-23T11:48:19;8.30;99.90
20700;DHT22;10511;51.232;9.420;2024-03-23T11:50:47;8.40;99.90
20700;DHT22;10511;51.232;9.420;2024-03-23T11:53:15;8.40;99.90
20700;DHT22;10511;51.232;9.420;2024-03-23T11:55:46;8.80;99.90
20700;DHT22;10511;51.232;9.420;2024-03-23T11:58:14;8.70;99.90
20700;DHT22;10511;51.232;9.420;2024-03-23T12:00:40;7.90;99.90
20700;DHT22;10511;51.232;9.420;2024-03-23T12:03:09;7.10;99.90
20700;DHT22;10511;51.232;9.420;2024-03-23T12:05:36;6.40;99.90
20700;DHT22;10511;51.232;9.420;2024-03-23T12:08:21;6.10;99.90
20700;DHT22;10511;51.232;9.420;2024-03-23T12:10:49;5.40;99.90
20700;DHT22;10511;51.232;9.420;2024-03-23T12:13:17;5.20;99.90
20700;DHT22;10511;51.232;9.420;2024-03-23T12:15:45;5.10;99.90
20700;DHT22;10511;51.232;9.420;2024-03-23T12:18:13;5.10;99.90
20700;DHT22;10511;51.232;9.420;2024-03-23T12:20:39;5.30;99.90
20700;DHT22;10511;51.232;9.420;2024-03-23T12:23:08;5.40;99.90
20700;DHT22;10511;51.232;9.420;2024-03-23T12:25:35;5.60;99.90
20700;DHT22;10511;51.232;9.420;2024-03-23T12:28:02;5.80;99.90
20700;DHT22;10511;51.232;9.420;2024-03-23T12:30:28;6.20;99.90
20700;DHT22;10511;51.232;9.420;2024-03-23T12:32:55;6.50;99.90
20700;DHT22;10511;51.232;9.420;2024-03-23T12:35:22;6.90;99.90
20700;DHT22;10511;51.232;9.420;2024-03-23T12:37:49;7.20;99.90
20700;DHT22;10511;51.232;9.420;2024-03-23T12:40:14;7.50;99.90
20700;DHT22;10511;51.232;9.420;2024-03-23T12:42:41;7.60;99.90
20700;DHT22;10511;51.232;9.420;2024-03-23T12:45:08;7.90;99.90
20700;DHT22;10511;51.232;9.420;2024-03-23T12:47:35;8.20;99.90
20700;DHT22;10511;51.232;9.420;2024-03-23T12:50:01;8.00;99.90
20700;DHT22;10511;51.232;9.420;2024-03-23T12:52:29;8.00;99.90
20700;DHT22;10511;51.232;9.420;2024-03-23T12:54:55;8.20;99.90
20700;DHT22;10511;51.232;9.420;2024-03-23T12:57:23;8.20;99.90
20700;DHT22;10511;51.232;9.420;2024-03-23T12:59:50;8.40;99.90
20700;DHT22;10511;51.232;9.420;2024-03-23T13:02:18;8.50;99.90
20700;DHT22;10511;51.232;9.420;2024-03-23T13:04:46;8.50;99.90
20700;DHT22;10511;51.232;9.420;2024-03-23T13:07:12;8.50;99.90
20700;DHT22;10511;51.232;9.420;2024-03-23T13:09:40;8.30;99.90
20700;DHT22;10511;51.232;9.420;2024-03-23T13:12:07;8.10;99.90
20700;DHT22;10511;51.232;9.420;2024-03-23T13:14:33;8.20;99.90
20700;DHT22;10511;51.232;9.420;2024-03-23T13:17:00;8.30;99.90
20700;DHT22;10511;51.232;9.420;2024-03-23T13:19:27;8.20;99.90
20700;DHT22;10511;51.232;9.420;2024-03-23T13:21:56;8.10;99.90
20700;DHT22;10511;51.232;9.420;2024-03-23T13:24:22;8.00;99.90
20700;DHT22;10511;51.232;9.420;2024-03-23T13:26:51;8.10;99.90
20700;DHT22;10511;51.232;9.420;2024-03-23T13:29:18;7.90;99.90
20700;DHT22;10511;51.232;9.420;2024-03-23T13:31:45;7.70;99.90
20700;DHT22;10511;51.232;9.420;2024-03-23T13:34:11;7.70;99.90
20700;DHT22;10511;51.232;9.420;2024-03-23T13:36:38;7.60;99.90
20700;DHT22;10511;51.232;9.420;2024-03-23T13:39:04;7.50;99.90
20700;DHT22;10511;51.232;9.420;2024-03-23T13:41:37;7.40;99.90
20700;DHT22;10511;51.232;9.420;2024-03-23T13:44:05;7.30;99.90
20700;DHT22;10511;51.232;9.420;2024-03-23T13:46:32;7.20;99.90
20700;DHT22;10511;51.232;9.420;2024-03-23T13:48:58;7.20;99.90
20700;DHT22;10511;51.232;9.420;2024-03-23T13:51:25;6.50;99.90
20700;DHT22;10511;51.232;9.420;2024-03-23T13:53:52;5.80;99.90
20700;DHT22;10511;51.232;9.420;2024-03-23T13:56:20;5.70;99.90
20700;DHT22;10511;51.232;9.420;2024-03-23T13:58:46;5.90;99.90
20700;DHT22;10511;51.232;9.420;2024-03-23T14:01:17;6.20;99.90
20700;DHT22;10511;51.232;9.420;2024-03-23T14:03:43;6.50;99.90
20700;DHT22;10511;51.232;9.420;2024-03-23T14:06:11;6.80;99.90
20700;DHT22;10511;51.232;9.420;2024-03-23T14:08:37;7.00;99.90
20700;DHT22;10511;51.232;9.420;2024-03-23T14:11:05;7.00;99.90
20700;DHT22;10511;51.232;9.420;2024-03-23T14:13:31;7.10;99.90
20700;DHT22;10511;51.232;9.420;2024-03-23T14:15:59;6.90;99.90
20700;DHT22;10511;51.232;9.420;2024-03-23T14:18:27;6.70;99.90
20700;DHT22;10511;51.232;9.420;2024-03-23T14:20:57;6.70;99.90
20700;DHT22;10511;51.232;9.420;2024-03-23T14:23:24;6.90;99.90
20700;DHT22;10511;51.232;9.420;2024-03-23T14:25:53;7.00;99.90
20700;DHT22;10511;51.232;9.420;2024-03-23T14:28:20;7.20;99.90
20700;DHT22;10511;51.232;9.420;2024-03-23T14:30:48;7.40;99.90
20700;DHT22;10511;51.232;9.420;2024-03-23T14:33:15;7.40;99.90
20700;DHT22;10511;51.232;9.420;2024-03-23T14:35:48;7.30;99.90
20700;DHT22;10511;51.232;9.420;2024-03-23T14:38:17;7.20;99.90
20700;DHT22;10511;51.232;9.420;2024-03-23T14:40:44;7.20;99.90
20700;DHT22;10511;51.232;9.420;2024-03-23T14:43:10;7.10;99.90
20700;DHT22;10511;51.232;9.420;2024-03-23T14:45:37;7.10;99.90
20700;DHT22;10511;51.232;9.420;2024-03-23T14:48:03;7.00;99.90
20700;DHT22;10511;51.232;9.420;2024-03-23T14:50:30;7.10;99.90
20700;DHT22;10511;51.232;9.420;2024-03-23T14:53:01;7.20;99.90
20700;DHT22;10511;51.232;9.420;2024-03-23T14:55:28;7.20;99.90
20700;DHT22;10511;51.232;9.420;2024-03-23T14:57:55;7.20;99.90
20700;DHT22;10511;51.232;9.420;2024-03-23T15:00:22;7.10;99.90
20700;DHT22;10511;51.232;9.420;2024-03-23T15:02:48;7.10;99.90
20700;DHT22;10511;51.232;9.420;2024-03-23T15:05:15;7.20;99.90
20700;DHT22;10511;51.232;9.420;2024-03-23T15:07:40;7.20;99.90
20700;DHT22;10511;51.232;9.420;2024-03-23T15:10:09;7.20;99.90
20700;DHT22;10511;51.232;9.420;2024-03-23T15:12:35;7.20;99.90
20700;DHT22;10511;51.232;9.420;2024-03-23T15:15:03;7.20;99.90
20700;DHT22;10511;51.232;9.420;2024-03-23T15:17:29;7.20;99.90
20700;DHT22;10511;51.232;9.420;2024-03-23T15:20:00;7.30;99.90
20700;DHT22;10511;51.232;9.420;2024-03-23T15:22:25;7.30;99.90
20700;DHT22;10511;51.232;9.420;2024-03-23T15:24:52;7.40;99.90
20700;DHT22;10511;51.232;9.420;2024-03-23T15:27:19;7.40;99.90
20700;DHT22;10511;51.232;9.420;2024-03-23T15:29:46;7.50;99.90
20700;DHT22;10511;51.232;9.420;2024-03-23T15:32:12;7.50;99.90
20700;DHT22;10511;51.232;9.420;2024-03-23T15:34:43;7.50;99.90
20700;DHT22;10511;51.232;9.420;2024-03-23T15:37:08;7.60;99.90
20700;DHT22;10511;51.232;9.420;2024-03-23T15:39:35;7.70;99.90
20700;DHT22;10511;51.232;9.420;2024-03-23T15:42:01;7.70;99.90
20700;DHT22;10511;51.232;9.420;2024-03-23T15:44:31;7.70;99.90
20700;DHT22;10511;51.232;9.420;2024-03-23T15:46:56;7.70;99.90
20700;DHT22;10511;51.232;9.420;2024-03-23T15:49:23;7.80;99.90
20700;DHT22;10511;51.232;9.420;2024-03-23T15:51:49;7.70;99.90
20700;DHT22;10511;51.232;9.420;2024-03-23T15:54:16;7.60;99.90
20700;DHT22;10511;51.232;9.420;2024-03-23T15:56:42;7.60;99.90
20700;DHT22;10511;51.232;9.420;2024-03-23T15:59:09;7.70;99.90
20700;DHT22;10511;51.232;9.420;2024-03-23T16:01:36;7.60;99.90
20700;DHT22;10511;51.232;9.420;2024-03-23T16:04:04;7.50;99.90
20700;DHT22;10511;51.232;9.420;2024-03-23T16:06:30;7.40;99.90
20700;DHT22;10511;51.232;9.420;2024-03-23T16:08:57;7.30;99.90
20700;DHT22;10511;51.232;9.420;2024-03-23T16:11:22;7.20;99.90
20700;DHT22;10511;51.232;9.420;2024-03-23T16:13:49;7.20;99.90
20700;DHT22;10511;51.232;9.420;2024-03-23T16:16:15;7.20;99.90
20700;DHT22;10511;51.232;9.420;2024-03-23T16:18:43;7.20;99.90
20700;DHT22;10511;51.232;9.420;2024-03-23T16:21:10;7.20;99.90
20700;DHT22;10511;51.232;9.420;2024-03-23T16:23:37;7.20;99.90
20700;DHT22;10511;51.232;9.420;2024-03-23T16:26:03;7.20;99.90
20700;DHT22;10511;51.232;9.420;2024-03-23T16:28:31;7.10;99.90
20700;DHT22;10511;51.232;9.420;2024-03-23T16:30:59;7.10;99.90
20700;DHT22;10511;51.232;9.420;2024-03-23T16:33:27;7.10;99.90
20700;DHT22;10511;51.232;9.420;2024-03-23T16:36:01;7.10;99.90
20700;DHT22;10511;51.232;9.420;2024-03-23T16:38:30;7.10;99.90